createdAt,value
2022-11-06T00:01:57.929Z,5.05
2022-11-06T00:04:26.034Z,5.38
2022-11-06T00:06:52.934Z,6.45
2022-11-06T00:09:22.358Z,5.30
2022-11-06T00:11:52.873Z,5.40
2022-11-06T00:14:21.305Z,6.60
2022-11-06T00:16:50.570Z,5.40
2022-11-06T00:19:18.969Z,5.28
2022-11-06T00:21:49.431Z,5.70
2022-11-06T00:24:18.595Z,6.10
2022-11-06T00:26:53.061Z,6.07
2022-11-06T00:29:22.264Z,5.75
2022-11-06T00:31:51.724Z,6.40
2022-11-06T00:34:19.673Z,6.40
2022-11-06T00:36:47.510Z,6.78
2022-11-06T00:39:15.440Z,6.80
2022-11-06T00:41:43.274Z,6.50
2022-11-06T00:44:11.261Z,6.53
2022-11-06T00:46:39.173Z,7.07
2022-11-06T00:49:08.541Z,7.78
2022-11-06T00:51:39.687Z,8.00
2022-11-06T00:54:11.797Z,8.13
2022-11-06T00:56:40.050Z,8.38
2022-11-06T00:59:12.638Z,8.52
2022-11-06T01:01:43.204Z,8.25
2022-11-06T01:04:17.049Z,8.70
2022-11-06T01:06:47.189Z,8.02
2022-11-06T01:09:16.727Z,7.85
2022-11-06T01:12:11.673Z,9.38
2022-11-06T01:14:35.419Z,8.45
2022-11-06T01:17:03.395Z,8.98
2022-11-06T01:19:32.663Z,8.65
2022-11-06T01:22:00.692Z,8.52
2022-11-06T01:24:30.063Z,9.15
2022-11-06T01:27:24.844Z,8.75
2022-11-06T01:29:47.039Z,9.23
2022-11-06T01:32:14.996Z,9.38
2022-11-06T01:34:44.250Z,9.05
2022-11-06T01:37:14.805Z,9.32
2022-11-06T01:39:43.315Z,9.75
2022-11-06T01:42:12.254Z,9.07
2022-11-06T01:45:16.440Z,8.70
2022-11-06T01:47:44.865Z,9.98
2022-11-06T01:50:16.227Z,9.95
2022-11-06T01:52:47.578Z,9.05
2022-11-06T01:55:20.542Z,8.65
2022-11-06T01:57:49.363Z,9.38
2022-11-06T02:00:17.957Z,9.65
2022-11-06T02:02:45.999Z,9.50
2022-11-06T02:05:15.539Z,9.77
2022-11-06T02:07:44.892Z,10.05
2022-11-06T02:10:12.843Z,9.15
2022-11-06T02:12:52.987Z,9.80
2022-11-06T02:15:28.362Z,9.35
2022-11-06T02:18:16.579Z,10.25
2022-11-06T02:21:00.246Z,9.32
2022-11-06T02:23:51.673Z,10.13
2022-11-06T02:26:34.605Z,10.40
2022-11-06T02:29:07.166Z,9.60
2022-11-06T02:31:41.406Z,9.80
2022-11-06T02:34:13.451Z,9.30
2022-11-06T02:36:46.230Z,10.60
2022-11-06T02:39:20.230Z,10.18
2022-11-06T02:41:50.811Z,9.85
2022-11-06T02:44:24.232Z,10.02
2022-11-06T02:46:54.601Z,9.77
2022-11-06T02:49:27.874Z,10.10
2022-11-06T02:52:00.386Z,9.82
2022-11-06T02:54:33.069Z,10.13
2022-11-06T02:57:08.988Z,9.97
2022-11-06T02:59:44.003Z,10.13
2022-11-06T03:02:17.842Z,9.98
2022-11-06T03:04:49.598Z,10.32
2022-11-06T03:07:23.883Z,9.50
2022-11-06T03:09:51.937Z,9.88
2022-11-06T03:12:25.763Z,9.98
2022-11-06T03:15:01.032Z,9.55
2022-11-06T03:17:41.638Z,9.65
2022-11-06T03:20:20.680Z,9.43
2022-11-06T03:22:53.344Z,10.02
2022-11-06T03:25:24.929Z,9.45
2022-11-06T03:27:58.730Z,8.90
2022-11-06T03:30:28.465Z,9.48
2022-11-06T03:33:00.284Z,9.00
2022-11-06T03:35:33.670Z,9.50
2022-11-06T03:38:08.393Z,9.07
2022-11-06T03:40:43.839Z,9.38
2022-11-06T03:43:15.731Z,9.32
2022-11-06T03:45:48.090Z,8.80
2022-11-06T03:48:21.878Z,9.70
2022-11-06T03:50:58.700Z,8.80
2022-11-06T03:53:30.670Z,9.20
2022-11-06T03:56:03.969Z,8.10
2022-11-06T03:58:38.687Z,9.25
2022-11-06T04:01:11.943Z,9.20
2022-11-06T04:03:45.047Z,9.30
2022-11-06T04:06:18.607Z,9.90
2022-11-06T04:09:07.214Z,8.65
2022-11-06T04:11:54.952Z,8.05
2022-11-06T04:14:26.128Z,10.73
2022-11-06T04:16:59.324Z,8.25
2022-11-06T04:19:27.391Z,8.32
2022-11-06T04:22:08.175Z,8.93
2022-11-06T04:25:06.458Z,8.82
2022-11-06T04:27:46.400Z,9.38
2022-11-06T04:30:17.815Z,9.07
2022-11-06T04:33:01.172Z,9.13
2022-11-06T04:35:38.538Z,8.55
2022-11-06T04:38:11.264Z,9.43
2022-11-06T04:40:48.507Z,8.48
2022-11-06T04:43:23.832Z,8.45
2022-11-06T04:45:56.308Z,8.63
2022-11-06T04:48:26.669Z,8.02
2022-11-06T04:51:07.074Z,7.95
2022-11-06T04:53:36.305Z,8.25
2022-11-06T04:56:11.955Z,7.32
2022-11-06T04:58:40.092Z,8.18
2022-11-06T05:01:08.121Z,8.02
2022-11-06T05:03:38.358Z,8.13
2022-11-06T05:06:06.861Z,8.60
2022-11-06T05:08:34.720Z,8.50
2022-11-06T05:11:02.710Z,7.65
2022-11-06T05:13:30.663Z,7.93
2022-11-06T05:15:59.500Z,7.45
2022-11-06T05:18:28.851Z,7.38
2022-11-06T05:21:14.557Z,7.88
2022-11-06T05:23:43.040Z,7.03
2022-11-06T05:26:11.058Z,7.82
2022-11-06T05:28:39.087Z,7.35
2022-11-06T05:31:06.999Z,7.15
2022-11-06T05:33:34.891Z,7.38
2022-11-06T05:36:05.351Z,6.53
2022-11-06T05:38:33.921Z,6.80
2022-11-06T05:41:02.236Z,6.95
2022-11-06T05:43:30.369Z,6.50
2022-11-06T05:46:00.447Z,7.07
2022-11-06T05:48:29.501Z,6.40
2022-11-06T05:51:01.432Z,6.65
2022-11-06T05:53:30.906Z,6.68
2022-11-06T05:55:59.052Z,6.50
2022-11-06T05:58:27.590Z,5.93
2022-11-06T06:00:56.272Z,6.88
2022-11-06T06:03:24.714Z,6.25
2022-11-06T06:05:52.710Z,5.85
2022-11-06T06:08:20.851Z,6.10
2022-11-06T06:10:50.286Z,6.00
2022-11-06T06:13:18.299Z,6.13
2022-11-06T06:15:46.335Z,6.28
2022-11-06T06:18:15.151Z,5.85
2022-11-06T06:20:43.531Z,6.10
2022-11-06T06:23:12.137Z,6.60
2022-11-06T06:25:40.031Z,6.32
2022-11-06T06:28:09.660Z,5.70
2022-11-06T06:30:38.889Z,5.90
2022-11-06T06:33:07.541Z,6.07
2022-11-06T06:35:35.980Z,5.55
2022-11-06T06:38:04.016Z,6.13
2022-11-06T06:40:32.011Z,5.15
2022-11-06T06:42:59.909Z,5.75
2022-11-06T06:45:29.603Z,5.93
2022-11-06T06:48:03.096Z,5.05
2022-11-06T06:50:31.032Z,5.32
2022-11-06T06:53:00.397Z,5.03
2022-11-06T06:55:29.563Z,5.97
2022-11-06T06:57:58.966Z,5.65
2022-11-06T07:00:27.520Z,4.97
2022-11-06T07:02:57.111Z,5.45
2022-11-06T07:05:25.539Z,4.75
2022-11-06T07:07:53.589Z,5.38
2022-11-06T07:10:21.750Z,4.97
2022-11-06T07:12:49.819Z,4.80
2022-11-06T07:15:17.910Z,4.93
2022-11-06T07:17:46.625Z,4.80
2022-11-06T07:20:16.033Z,4.55
2022-11-06T07:22:44.710Z,4.68
2022-11-06T07:25:12.759Z,4.72
2022-11-06T07:27:41.512Z,4.85
2022-11-06T07:30:10.883Z,4.30
2022-11-06T07:32:38.856Z,4.63
2022-11-06T07:35:07.914Z,4.10
2022-11-06T07:37:37.868Z,4.65
2022-11-06T07:40:07.150Z,3.35
2022-11-06T07:42:38.266Z,4.10
